createdAt,value
2018-03-02T00:00:41.474Z,940.7
2018-03-02T00:01:41.451Z,940.63
2018-03-02T00:02:41.425Z,940.63
2018-03-02T00:03:41.400Z,940.61
2018-03-02T00:04:41.374Z,940.61
2018-03-02T00:05:41.349Z,940.6
2018-03-02T00:06:41.324Z,940.59
2018-03-02T00:07:41.299Z,940.59
2018-03-02T00:08:41.274Z,940.56
2018-03-02T00:09:41.247Z,940.52
2018-03-02T00:10:41.223Z,940.56
2018-03-02T00:11:41.200Z,940.54
2018-03-02T00:12:41.173Z,940.5
2018-03-02T00:13:41.148Z,940.53
2018-03-02T00:14:41.123Z,940.48
2018-03-02T00:15:41.096Z,940.47
2018-03-02T00:16:41.072Z,940.52
2018-03-02T00:17:41.046Z,940.51
2018-03-02T00:18:41.021Z,940.46
2018-03-02T00:19:40.996Z,940.42
2018-03-02T00:20:40.971Z,940.39
2018-03-02T00:21:40.946Z,940.35
2018-03-02T00:22:40.921Z,940.36
2018-03-02T00:23:40.894Z,940.35
2018-03-02T00:24:40.870Z,940.36
2018-03-02T00:25:40.846Z,940.31
2018-03-02T00:26:40.819Z,940.33
2018-03-02T00:27:40.824Z,940.3
2018-03-02T00:28:40.774Z,940.22
2018-03-02T00:29:40.745Z,940.17
2018-03-02T00:30:40.721Z,940.17
2018-03-02T00:31:40.694Z,940.17
2018-03-02T00:32:40.669Z,940.14
2018-03-02T00:33:40.644Z,940.12
2018-03-02T00:34:40.619Z,940.11
2018-03-02T00:35:40.594Z,940.13
2018-03-02T00:36:40.568Z,940.08
2018-03-02T00:37:40.542Z,940.09
2018-03-02T00:38:40.517Z,940.06
2018-03-02T00:39:40.491Z,940.09
2018-03-02T00:40:40.467Z,940.07
2018-03-02T00:41:40.440Z,940.04
2018-03-02T00:42:40.418Z,940.07
2018-03-02T00:43:40.390Z,940.05
2018-03-02T00:44:40.366Z,940.04
2018-03-02T00:45:40.339Z,940
2018-03-02T00:46:40.315Z,940.01
2018-03-02T00:47:40.293Z,940.04
2018-03-02T00:48:40.263Z,940
2018-03-02T00:49:40.239Z,939.97
2018-03-02T00:50:40.214Z,939.93
2018-03-02T00:51:40.188Z,939.95
2018-03-02T00:52:40.162Z,939.89
2018-03-02T00:53:40.136Z,939.95
2018-03-02T00:54:40.110Z,939.92
2018-03-02T00:55:40.090Z,939.93
2018-03-02T00:56:40.061Z,939.92
2018-03-02T00:57:40.036Z,939.88
2018-03-02T00:58:40.011Z,939.89
2018-03-02T00:59:39.988Z,939.87
2018-03-02T01:00:39.959Z,939.88
2018-03-02T01:01:39.935Z,939.86
2018-03-02T01:02:39.909Z,939.82
2018-03-02T01:03:39.883Z,939.81
2018-03-02T01:04:39.858Z,939.86
2018-03-02T01:05:39.832Z,939.81
2018-03-02T01:06:39.807Z,939.84
2018-03-02T01:07:39.782Z,939.81
2018-03-02T01:08:39.758Z,939.77
2018-03-02T01:09:39.731Z,939.74
2018-03-02T01:10:39.706Z,939.77
2018-03-02T01:11:39.685Z,939.82
2018-03-02T01:12:39.655Z,939.79
2018-03-02T01:13:39.630Z,939.76
2018-03-02T01:14:39.604Z,939.8
2018-03-02T01:15:39.579Z,939.84
2018-03-02T01:16:39.554Z,939.8
2018-03-02T01:17:39.528Z,939.81
2018-03-02T01:18:39.502Z,939.83
2018-03-02T01:19:39.483Z,939.79
2018-03-02T01:20:39.453Z,939.72
2018-03-02T01:21:39.426Z,939.7
2018-03-02T01:22:39.402Z,939.69
2018-03-02T01:23:39.376Z,939.74
2018-03-02T01:24:39.352Z,939.74
2018-03-02T01:25:39.325Z,939.79
2018-03-02T01:26:39.300Z,939.74
2018-03-02T01:27:39.274Z,939.68
2018-03-02T01:28:39.249Z,939.71
2018-03-02T01:29:39.224Z,939.72
2018-03-02T01:30:39.198Z,939.68
2018-03-02T01:31:39.173Z,939.64
2018-03-02T01:32:39.147Z,939.64
2018-03-02T01:33:39.128Z,939.63
2018-03-02T01:34:39.118Z,939.61
2018-03-02T01:35:39.071Z,939.59
2018-03-02T01:36:39.045Z,939.56
2018-03-02T01:37:39.021Z,939.55
2018-03-02T01:38:38.995Z,939.5
2018-03-02T01:39:38.972Z,939.49
2018-03-02T01:40:38.944Z,939.52
2018-03-02T01:41:38.919Z,939.51
2018-03-02T01:42:38.894Z,939.48
2018-03-02T01:43:38.868Z,939.47
2018-03-02T01:44:38.846Z,939.46
2018-03-02T01:45:38.818Z,939.46
2018-03-02T01:46:38.793Z,939.43
2018-03-02T01:47:38.767Z,939.46
2018-03-02T01:48:38.742Z,939.4
2018-03-02T01:49:38.716Z,939.45
2018-03-02T01:50:38.690Z,939.47
2018-03-02T01:51:38.665Z,939.42
2018-03-02T01:52:38.640Z,939.44
2018-03-02T01:53:38.614Z,939.4
2018-03-02T01:54:38.597Z,939.42
2018-03-02T01:55:38.563Z,939.39
2018-03-02T01:56:38.538Z,939.38
2018-03-02T01:57:38.513Z,939.34
2018-03-02T01:58:38.487Z,939.38
2018-03-02T01:59:38.462Z,939.34
2018-03-02T02:00:38.437Z,939.36
2018-03-02T02:01:38.413Z,939.34
2018-03-02T02:02:38.385Z,939.31
2018-03-02T02:03:38.360Z,939.33
2018-03-02T02:04:38.334Z,939.27
2018-03-02T02:05:38.308Z,939.33
2018-03-02T02:06:38.284Z,939.29
2018-03-02T02:07:38.258Z,939.33
2018-03-02T02:08:38.237Z,939.29
2018-03-02T02:09:38.206Z,939.29
2018-03-02T02:10:38.181Z,939.28
2018-03-02T02:11:38.156Z,939.26
2018-03-02T02:12:38.130Z,939.27
2018-03-02T02:13:38.105Z,939.23
2018-03-02T02:14:38.079Z,939.19
2018-03-02T02:15:38.055Z,939.21
2018-03-02T02:16:38.031Z,939.18
2018-03-02T02:17:38.004Z,939.19
2018-03-02T02:18:37.978Z,939.14
2018-03-02T02:19:37.953Z,939.11
2018-03-02T02:20:37.926Z,939.07
2018-03-02T02:21:37.901Z,939.04
2018-03-02T02:22:37.877Z,939
2018-03-02T02:23:37.849Z,939
2018-03-02T02:24:37.825Z,939.02
2018-03-02T02:25:37.799Z,938.97
2018-03-02T02:26:37.774Z,938.95
2018-03-02T02:27:37.748Z,938.92
2018-03-02T02:28:37.723Z,938.97
2018-03-02T02:29:37.698Z,938.93
2018-03-02T02:30:37.672Z,938.94
2018-03-02T02:31:37.647Z,938.93
2018-03-02T02:32:37.623Z,938.95
2018-03-02T02:33:37.597Z,938.93
2018-03-02T02:34:37.575Z,938.92
2018-03-02T02:35:37.547Z,938.9
2018-03-02T02:36:37.521Z,938.94
2018-03-02T02:37:37.496Z,938.92
2018-03-02T02:38:37.470Z,938.96
2018-03-02T02:39:37.443Z,938.93
2018-03-02T02:40:37.419Z,938.91
2018-03-02T02:41:37.392Z,938.9
2018-03-02T02:42:37.370Z,938.86
2018-03-02T02:43:37.342Z,938.89
2018-03-02T02:44:37.317Z,938.95
2018-03-02T02:45:37.292Z,938.96
2018-03-02T02:46:37.265Z,938.98
2018-03-02T02:47:37.241Z,938.89
2018-03-02T02:48:37.215Z,938.95
2018-03-02T02:49:37.192Z,938.96
2018-03-02T02:50:37.171Z,938.93
2018-03-02T02:51:37.143Z,938.95
2018-03-02T02:52:37.117Z,939.01
2018-03-02T02:53:37.086Z,938.98
2018-03-02T02:54:37.063Z,938.95
2018-03-02T02:55:37.036Z,938.96
2018-03-02T02:56:37.014Z,938.98
2018-03-02T02:57:36.984Z,938.94
2018-03-02T02:58:36.961Z,938.89
2018-03-02T02:59:36.935Z,938.89
2018-03-02T03:00:36.908Z,938.9
2018-03-02T03:01:36.884Z,938.83
2018-03-02T03:02:36.858Z,938.83
2018-03-02T03:03:36.831Z,938.79
2018-03-02T03:04:36.806Z,938.77
2018-03-02T03:05:36.781Z,938.83
2018-03-02T03:06:36.756Z,938.77
2018-03-02T03:07:36.728Z,938.74
2018-03-02T03:08:36.702Z,938.73
2018-03-02T03:09:36.678Z,938.7
2018-03-02T03:10:36.652Z,938.72
2018-03-02T03:11:36.626Z,938.74
2018-03-02T03:12:36.604Z,938.77
2018-03-02T03:13:36.575Z,938.72
2018-03-02T03:14:36.550Z,938.74
2018-03-02T03:15:36.524Z,938.77
2018-03-02T03:16:36.498Z,938.7
2018-03-02T03:17:36.472Z,938.72
2018-03-02T03:18:36.447Z,938.68
2018-03-02T03:19:36.422Z,938.73
2018-03-02T03:20:36.396Z,938.71
2018-03-02T03:21:36.371Z,938.72
2018-03-02T03:22:36.345Z,938.68
2018-03-02T03:23:36.322Z,938.72
2018-03-02T03:24:36.293Z,938.72
2018-03-02T03:25:36.267Z,938.68
2018-03-02T03:26:36.241Z,938.69
2018-03-02T03:27:36.216Z,938.66
2018-03-02T03:28:36.191Z,938.68
2018-03-02T03:29:36.165Z,938.68
2018-03-02T03:30:36.140Z,938.58
2018-03-02T03:31:36.115Z,938.63
2018-03-02T03:32:36.088Z,938.59
2018-03-02T03:33:36.066Z,938.51
2018-03-02T03:34:36.037Z,938.55
2018-03-02T03:35:36.012Z,938.52
2018-03-02T03:36:35.986Z,938.49
2018-03-02T03:37:35.960Z,938.5
2018-03-02T03:38:35.934Z,938.48
2018-03-02T03:39:35.909Z,938.52
2018-03-02T03:40:35.890Z,938.53
2018-03-02T03:41:35.858Z,938.52
2018-03-02T03:42:35.832Z,938.51
2018-03-02T03:43:35.839Z,938.5
2018-03-02T03:44:35.780Z,938.42
2018-03-02T03:45:35.755Z,938.44
2018-03-02T03:46:35.729Z,938.47
2018-03-02T03:47:35.703Z,938.45
2018-03-02T03:48:35.678Z,938.41
2018-03-02T03:49:35.653Z,938.38
2018-03-02T03:50:35.628Z,938.36
2018-03-02T03:51:35.600Z,938.38
2018-03-02T03:52:35.577Z,938.42
2018-03-02T03:53:35.550Z,938.41
2018-03-02T03:54:35.524Z,938.42
2018-03-02T03:55:35.498Z,938.42
2018-03-02T03:56:35.473Z,938.38
2018-03-02T03:57:35.447Z,938.4
2018-03-02T03:58:35.420Z,938.36
2018-03-02T03:59:35.395Z,938.38
2018-03-02T04:00:35.369Z,938.37
2018-03-02T04:01:35.345Z,938.35
2018-03-02T04:02:35.322Z,938.32
2018-03-02T04:03:35.292Z,938.35
2018-03-02T04:04:35.267Z,938.35
2018-03-02T04:05:35.243Z,938.33
2018-03-02T04:06:35.216Z,938.3
2018-03-02T04:07:35.252Z,938.33
2018-03-02T04:08:35.166Z,938.33
2018-03-02T04:09:35.139Z,938.37
2018-03-02T04:10:35.112Z,938.34
2018-03-02T04:11:35.089Z,938.33
2018-03-02T04:12:35.062Z,938.28
2018-03-02T04:13:35.047Z,938.26
2018-03-02T04:14:35.010Z,938.28
2018-03-02T04:15:34.985Z,938.27
2018-03-02T04:16:34.958Z,938.22
2018-03-02T04:17:34.933Z,938.25
2018-03-02T04:18:34.908Z,938.22
2018-03-02T04:19:34.882Z,938.2
2018-03-02T04:20:34.855Z,938.2
2018-03-02T04:21:34.829Z,938.26
2018-03-02T04:22:34.804Z,938.21
2018-03-02T04:23:34.778Z,938.2
2018-03-02T04:24:34.752Z,938.23
2018-03-02T04:25:34.730Z,938.2
2018-03-02T04:26:34.700Z,938.17
2018-03-02T04:27:34.673Z,938.18
2018-03-02T04:28:34.648Z,938.21
2018-03-02T04:29:34.622Z,938.24
2018-03-02T04:30:34.597Z,938.19
2018-03-02T04:31:34.571Z,938.17
2018-03-02T04:32:34.549Z,938.13
2018-03-02T04:33:34.519Z,938.11
2018-03-02T04:34:34.495Z,938.12
2018-03-02T04:35:34.468Z,938.14
2018-03-02T04:36:34.443Z,938.13
2018-03-02T04:37:34.419Z,938.11
2018-03-02T04:38:34.389Z,938.05
2018-03-02T04:39:34.363Z,938.1
2018-03-02T04:40:34.337Z,938.11
2018-03-02T04:41:34.312Z,938.02
2018-03-02T04:42:34.285Z,938.02
2018-03-02T04:43:34.259Z,938.08
2018-03-02T04:44:34.234Z,938.03
2018-03-02T04:45:34.225Z,938.01
2018-03-02T04:46:34.182Z,938.01
2018-03-02T04:47:34.157Z,938.02
2018-03-02T04:48:34.130Z,937.95
2018-03-02T04:49:34.104Z,937.94
2018-03-02T04:50:34.078Z,937.93
2018-03-02T04:51:34.052Z,937.95
2018-03-02T04:52:34.027Z,937.91
2018-03-02T04:53:34.000Z,937.9
2018-03-02T04:54:33.975Z,937.93
2018-03-02T04:55:33.949Z,937.94
2018-03-02T04:56:33.923Z,937.9
2018-03-02T04:57:33.896Z,937.95
2018-03-02T04:58:33.871Z,937.97
2018-03-02T04:59:33.845Z,937.96
2018-03-02T05:00:33.819Z,937.94
2018-03-02T05:01:33.794Z,937.96
2018-03-02T05:02:33.790Z,937.96
2018-03-02T05:03:33.742Z,937.96
2018-03-02T05:04:33.715Z,937.98
2018-03-02T05:05:33.689Z,937.95
2018-03-02T05:06:33.664Z,937.95
2018-03-02T05:07:33.641Z,937.93
2018-03-02T05:08:33.611Z,937.89
2018-03-02T05:09:33.585Z,937.89
2018-03-02T05:10:33.560Z,937.86
2018-03-02T05:11:33.533Z,937.83
2018-03-02T05:12:33.507Z,937.85
2018-03-02T05:13:33.488Z,937.76
2018-03-02T05:14:33.456Z,937.74
2018-03-02T05:15:33.429Z,937.73
2018-03-02T05:16:33.404Z,937.71
2018-03-02T05:17:33.378Z,937.69
2018-03-02T05:18:33.352Z,937.65
2018-03-02T05:19:33.326Z,937.66
2018-03-02T05:20:33.301Z,937.65
2018-03-02T05:21:33.331Z,937.62
2018-03-02T05:22:33.247Z,937.67
2018-03-02T05:23:33.221Z,937.68
2018-03-02T05:24:33.196Z,937.65
2018-03-02T05:25:33.170Z,937.65
2018-03-02T05:26:33.143Z,937.66
2018-03-02T05:27:33.117Z,937.64
2018-03-02T05:28:33.092Z,937.62
2018-03-02T05:29:33.066Z,937.61
2018-03-02T05:30:33.040Z,937.62
2018-03-02T05:31:33.017Z,937.57
2018-03-02T05:32:32.988Z,937.61
2018-03-02T05:33:32.965Z,937.59
2018-03-02T05:34:32.935Z,937.55
2018-03-02T05:35:32.912Z,937.55
2018-03-02T05:36:32.883Z,937.55
2018-03-02T05:37:32.856Z,937.5
2018-03-02T05:38:32.831Z,937.51
2018-03-02T05:39:32.805Z,937.54
2018-03-02T05:40:32.780Z,937.47
2018-03-02T05:41:32.754Z,937.51
2018-03-02T05:42:32.728Z,937.52
2018-03-02T05:43:32.706Z,937.52
2018-03-02T05:44:32.679Z,937.51
2018-03-02T05:45:32.650Z,937.42
2018-03-02T05:46:32.624Z,937.41
2018-03-02T05:47:32.598Z,937.38
2018-03-02T05:48:32.574Z,937.39
2018-03-02T05:49:32.545Z,937.33
2018-03-02T05:50:32.520Z,937.34
2018-03-02T05:51:32.493Z,937.33
2018-03-02T05:52:32.468Z,937.3
2018-03-02T05:53:32.442Z,937.34
2018-03-02T05:54:32.416Z,937.31
2018-03-02T05:55:32.390Z,937.31
2018-03-02T05:56:32.365Z,937.29
2018-03-02T05:57:32.338Z,937.28
2018-03-02T05:58:32.313Z,937.3
2018-03-02T05:59:32.288Z,937.34
2018-03-02T06:00:32.261Z,937.33
2018-03-02T06:01:32.234Z,937.33
2018-03-02T06:02:32.208Z,937.34
2018-03-02T06:03:32.187Z,937.34
2018-03-02T06:04:32.161Z,937.34
2018-03-02T06:05:32.131Z,937.38
2018-03-02T06:06:32.104Z,937.37
2018-03-02T06:07:32.123Z,937.37
2018-03-02T06:08:32.053Z,937.47
2018-03-02T06:09:32.028Z,937.46
2018-03-02T06:10:32.000Z,937.47
2018-03-02T06:11:31.979Z,937.44
2018-03-02T06:12:31.949Z,937.45
2018-03-02T06:13:31.924Z,937.48
2018-03-02T06:14:31.897Z,937.53
2018-03-02T06:15:31.876Z,937.53
2018-03-02T06:16:31.893Z,937.49
2018-03-02T06:17:31.820Z,937.54
2018-03-02T06:18:31.794Z,937.54
2018-03-02T06:19:31.769Z,937.53
2018-03-02T06:20:31.745Z,937.46
2018-03-02T06:21:31.717Z,937.48
2018-03-02T06:22:31.691Z,937.42
2018-03-02T06:23:31.666Z,937.39
2018-03-02T06:24:31.640Z,937.43
2018-03-02T06:25:31.618Z,937.36
2018-03-02T06:26:31.588Z,937.38
2018-03-02T06:27:31.564Z,937.32
2018-03-02T06:28:31.538Z,937.31
2018-03-02T06:29:31.515Z,937.3
2018-03-02T06:30:31.489Z,937.28
2018-03-02T06:31:31.466Z,937.26
2018-03-02T06:32:31.436Z,937.28
2018-03-02T06:33:31.411Z,937.23
2018-03-02T06:34:31.385Z,937.21
2018-03-02T06:35:31.360Z,937.23
2018-03-02T06:36:31.335Z,937.21
2018-03-02T06:37:31.311Z,937.19
2018-03-02T06:38:31.287Z,937.22
2018-03-02T06:39:31.258Z,937.16
2018-03-02T06:40:31.234Z,937.17
2018-03-02T06:41:31.208Z,937.14
2018-03-02T06:42:31.183Z,937.1
2018-03-02T06:43:31.157Z,937.1
2018-03-02T06:44:31.134Z,937.16
2018-03-02T06:45:31.108Z,937.17
2018-03-02T06:46:31.082Z,937.14
2018-03-02T06:47:31.058Z,937.16
2018-03-02T06:48:31.033Z,937.16
2018-03-02T06:49:31.009Z,937.1
2018-03-02T06:50:30.983Z,937.1
2018-03-02T06:51:30.958Z,937.07
2018-03-02T06:52:30.934Z,937.06
2018-03-02T06:53:30.910Z,936.99
2018-03-02T06:54:30.884Z,936.95
2018-03-02T06:55:30.860Z,936.95
2018-03-02T06:56:30.835Z,936.95
2018-03-02T06:57:30.810Z,936.9
2018-03-02T06:58:30.785Z,936.9
2018-03-02T06:59:30.765Z,936.92
2018-03-02T07:00:30.736Z,936.87
2018-03-02T07:01:30.710Z,936.9
2018-03-02T07:02:30.687Z,936.88
2018-03-02T07:03:30.663Z,936.83
2018-03-02T07:04:30.638Z,936.78
2018-03-02T07:05:30.614Z,936.78
2018-03-02T07:06:30.589Z,936.82
2018-03-02T07:07:30.568Z,936.79
2018-03-02T07:08:30.540Z,936.79
2018-03-02T07:09:30.516Z,936.82
2018-03-02T07:10:30.493Z,936.8
2018-03-02T07:11:30.468Z,936.78
2018-03-02T07:12:30.443Z,936.75
2018-03-02T07:13:30.418Z,936.78
2018-03-02T07:14:30.401Z,936.83
2018-03-02T07:15:30.371Z,936.8
2018-03-02T07:16:30.346Z,936.83
2018-03-02T07:17:30.323Z,936.86
2018-03-02T07:18:30.303Z,936.8
2018-03-02T07:19:30.274Z,936.77
2018-03-02T07:20:30.250Z,936.75
2018-03-02T07:21:30.273Z,936.82
2018-03-02T07:22:30.202Z,936.82
2018-03-02T07:23:30.178Z,936.93
2018-03-02T07:24:30.156Z,936.87
2018-03-02T07:25:30.130Z,936.84
2018-03-02T07:26:30.106Z,936.86
2018-03-02T07:27:30.093Z,936.83
2018-03-02T07:28:30.059Z,936.82
2018-03-02T07:29:30.035Z,936.79
2018-03-02T07:30:30.011Z,936.74
2018-03-02T07:31:29.987Z,936.72
2018-03-02T07:32:29.963Z,936.67
2018-03-02T07:33:29.939Z,936.66
2018-03-02T07:34:29.915Z,936.6
2018-03-02T07:35:29.891Z,936.57
2018-03-02T07:36:29.868Z,936.55
2018-03-02T07:37:29.843Z,936.53
2018-03-02T07:38:29.820Z,936.56
2018-03-02T07:39:29.797Z,936.54
2018-03-02T07:40:29.773Z,936.5
2018-03-02T07:41:29.751Z,936.52
2018-03-02T07:42:29.725Z,936.49
2018-03-02T07:43:29.702Z,936.47
2018-03-02T07:44:29.679Z,936.48
2018-03-02T07:45:29.655Z,936.41
2018-03-02T07:46:29.634Z,936.48
2018-03-02T07:47:29.608Z,936.46
2018-03-02T07:48:29.584Z,936.46
2018-03-02T07:49:29.560Z,936.41
2018-03-02T07:50:29.537Z,936.38
2018-03-02T07:51:29.513Z,936.36
2018-03-02T07:52:29.490Z,936.28
2018-03-02T07:53:29.466Z,936.29
2018-03-02T07:54:29.443Z,936.37
2018-03-02T07:55:29.421Z,936.35
2018-03-02T07:56:29.397Z,936.4
2018-03-02T07:57:29.480Z,936.42
2018-03-02T07:58:29.351Z,936.41
2018-03-02T07:59:29.325Z,936.36
2018-03-02T08:00:29.306Z,936.42
2018-03-02T08:01:29.279Z,936.33
2018-03-02T08:02:29.256Z,936.3
2018-03-02T08:03:29.231Z,936.3
2018-03-02T08:04:29.231Z,936.31
2018-03-02T08:05:29.186Z,936.34
2018-03-02T08:06:29.163Z,936.31
2018-03-02T08:07:29.139Z,936.33
2018-03-02T08:08:29.117Z,936.32
2018-03-02T08:09:29.093Z,936.27
2018-03-02T08:10:29.068Z,936.27
2018-03-02T08:11:29.048Z,936.26
2018-03-02T08:12:29.026Z,936.21
2018-03-02T08:13:29.002Z,936.22
2018-03-02T08:14:28.974Z,936.25
2018-03-02T08:15:28.951Z,936.21
2018-03-02T08:16:28.928Z,936.25
2018-03-02T08:17:28.905Z,936.27
2018-03-02T08:18:28.881Z,936.27
2018-03-02T08:19:28.859Z,936.24
2018-03-02T08:20:28.874Z,936.28
2018-03-02T08:21:28.812Z,936.27
2018-03-02T08:22:28.791Z,936.25
2018-03-02T08:23:28.766Z,936.28
2018-03-02T08:24:28.742Z,936.31
2018-03-02T08:25:28.719Z,936.25
2018-03-02T08:26:28.698Z,936.24
2018-03-02T08:27:28.673Z,936.2
2018-03-02T08:28:28.649Z,936.2
2018-03-02T08:29:28.626Z,936.22
2018-03-02T08:30:28.603Z,936.24
2018-03-02T08:31:28.581Z,936.19
2018-03-02T08:32:28.557Z,936.18
2018-03-02T08:33:28.534Z,936.13
2018-03-02T08:34:28.511Z,936.07
2018-03-02T08:35:28.494Z,936.07
2018-03-02T08:36:28.465Z,936.04
2018-03-02T08:37:28.442Z,936.03
2018-03-02T08:38:28.419Z,936.08
2018-03-02T08:39:28.397Z,936.08
2018-03-02T08:40:28.373Z,936.1
2018-03-02T08:41:28.350Z,936.11
2018-03-02T08:42:28.327Z,936.14
2018-03-02T08:43:28.304Z,936.13
2018-03-02T08:44:28.281Z,936.11
2018-03-02T08:45:28.262Z,936.1
2018-03-02T08:46:28.236Z,936.07
2018-03-02T08:47:28.212Z,936.07
2018-03-02T08:48:28.190Z,936.06
2018-03-02T08:49:28.170Z,936.03
2018-03-02T08:50:28.145Z,936.06
2018-03-02T08:51:28.126Z,936.1
2018-03-02T08:52:28.101Z,936.09
2018-03-02T08:53:28.078Z,936.06
2018-03-02T08:54:28.054Z,936.08
2018-03-02T08:55:28.032Z,936.04
2018-03-02T08:56:28.010Z,935.94
2018-03-02T08:57:27.988Z,935.96
2018-03-02T08:58:27.964Z,935.93
2018-03-02T08:59:27.947Z,936
2018-03-02T09:00:27.929Z,935.97
2018-03-02T09:01:27.897Z,935.98
2018-03-02T09:02:27.875Z,935.97
2018-03-02T09:03:27.853Z,935.92
2018-03-02T09:04:27.830Z,935.93
2018-03-02T09:05:27.807Z,935.96
2018-03-02T09:06:27.786Z,935.93
2018-03-02T09:07:27.764Z,935.95
2018-03-02T09:08:27.742Z,935.95
2018-03-02T09:09:27.719Z,935.96
2018-03-02T09:10:27.696Z,935.96
2018-03-02T09:11:27.674Z,935.97
2018-03-02T09:12:27.655Z,935.96
2018-03-02T09:13:27.630Z,935.94
2018-03-02T09:14:27.609Z,935.95
2018-03-02T09:15:27.587Z,935.91
2018-03-02T09:16:27.564Z,935.93
2018-03-02T09:17:27.542Z,935.9
2018-03-02T09:18:27.522Z,935.87
2018-03-02T09:19:27.500Z,935.86
2018-03-02T09:20:27.477Z,935.9
2018-03-02T09:21:27.456Z,935.85
2018-03-02T09:22:27.434Z,935.81
2018-03-02T09:23:27.411Z,935.77
2018-03-02T09:24:27.390Z,935.76
2018-03-02T09:25:27.369Z,935.76
2018-03-02T09:26:27.347Z,935.79
2018-03-02T09:27:27.325Z,935.8
2018-03-02T09:28:27.304Z,935.85
2018-03-02T09:29:27.284Z,935.78
2018-03-02T09:30:27.262Z,935.78
2018-03-02T09:31:27.240Z,935.75
2018-03-02T09:32:27.219Z,935.74
2018-03-02T09:33:27.218Z,935.72
2018-03-02T09:34:27.174Z,935.74
2018-03-02T09:35:27.153Z,935.76
2018-03-02T09:36:27.141Z,935.72
2018-03-02T09:37:27.112Z,935.73
2018-03-02T09:38:27.089Z,935.7
2018-03-02T09:39:27.069Z,935.7
2018-03-02T09:40:27.046Z,935.67
2018-03-02T09:41:27.026Z,935.73
2018-03-02T09:42:27.004Z,935.68
2018-03-02T09:43:26.982Z,935.66
2018-03-02T09:44:26.961Z,935.64
2018-03-02T09:45:26.940Z,935.68
2018-03-02T09:46:26.918Z,935.74
2018-03-02T09:47:26.898Z,935.65
2018-03-02T09:48:26.881Z,935.72
2018-03-02T09:49:26.857Z,935.66
2018-03-02T09:50:26.832Z,935.63
2018-03-02T09:51:26.811Z,935.61
2018-03-02T09:52:26.790Z,935.57
2018-03-02T09:53:26.767Z,935.6
2018-03-02T09:54:26.746Z,935.53
2018-03-02T09:55:26.726Z,935.56
2018-03-02T09:56:26.703Z,935.59
2018-03-02T09:57:26.681Z,935.58
2018-03-02T09:58:26.661Z,935.63
2018-03-02T09:59:26.639Z,935.59
2018-03-02T10:00:26.618Z,935.63
2018-03-02T10:01:26.597Z,935.63
2018-03-02T10:02:26.582Z,935.62
2018-03-02T10:03:26.554Z,935.58
2018-03-02T10:04:26.532Z,935.54
2018-03-02T10:05:26.512Z,935.56
2018-03-02T10:06:26.490Z,935.57
2018-03-02T10:07:26.469Z,935.48
2018-03-02T10:08:26.447Z,935.48
2018-03-02T10:09:26.455Z,935.43
2018-03-02T10:10:26.410Z,935.45
2018-03-02T10:11:26.383Z,935.46
2018-03-02T10:12:26.363Z,935.41
2018-03-02T10:13:26.342Z,935.44
2018-03-02T10:14:26.322Z,935.35
2018-03-02T10:15:26.300Z,935.34
2018-03-02T10:16:26.281Z,935.33
2018-03-02T10:17:26.259Z,935.34
2018-03-02T10:18:26.237Z,935.27
2018-03-02T10:19:26.216Z,935.29
2018-03-02T10:20:26.196Z,935.25
2018-03-02T10:21:26.174Z,935.21
2018-03-02T10:22:26.153Z,935.23
2018-03-02T10:23:26.133Z,935.22
2018-03-02T10:24:26.112Z,935.22
2018-03-02T10:25:26.092Z,935.2
2018-03-02T10:26:26.071Z,935.16
2018-03-02T10:27:26.050Z,935.14
2018-03-02T10:28:26.030Z,935.16
2018-03-02T10:29:26.012Z,935.15
2018-03-02T10:30:25.988Z,935.15
2018-03-02T10:31:25.968Z,935.25
2018-03-02T10:32:25.947Z,935.25
2018-03-02T10:33:25.925Z,935.22
2018-03-02T10:34:25.905Z,935.23
2018-03-02T10:35:25.887Z,935.23
2018-03-02T10:36:25.863Z,935.21
2018-03-02T10:37:25.842Z,935.23
2018-03-02T10:38:25.821Z,935.22
2018-03-02T10:39:25.805Z,935.25
2018-03-02T10:40:25.780Z,935.23
2018-03-02T10:41:25.759Z,935.22
2018-03-02T10:42:25.740Z,935.24
2018-03-02T10:43:25.719Z,935.21
2018-03-02T10:44:25.698Z,935.16
2018-03-02T10:45:25.691Z,935.18
2018-03-02T10:46:25.658Z,935.23
2018-03-02T10:47:25.637Z,935.23
2018-03-02T10:48:25.617Z,935.22
2018-03-02T10:49:25.596Z,935.2
2018-03-02T10:50:25.577Z,935.23
2018-03-02T10:51:25.559Z,935.22
2018-03-02T10:52:25.535Z,935.19
2018-03-02T10:53:25.516Z,935.14
2018-03-02T10:54:25.496Z,935.1
2018-03-02T10:55:25.475Z,935.08
2018-03-02T10:56:25.456Z,935.08
2018-03-02T10:57:25.436Z,935.06
2018-03-02T10:58:25.416Z,935.09
2018-03-02T10:59:25.396Z,935.05
2018-03-02T11:00:25.376Z,934.99
2018-03-02T11:01:25.357Z,934.94
2018-03-02T11:02:25.340Z,934.93
2018-03-02T11:03:25.316Z,934.91
2018-03-02T11:04:25.298Z,934.97
2018-03-02T11:05:25.279Z,935
2018-03-02T11:06:25.258Z,934.99
2018-03-02T11:07:25.239Z,935.05
2018-03-02T11:08:25.219Z,934.99
2018-03-02T11:09:25.203Z,934.99
2018-03-02T11:10:25.180Z,934.95
2018-03-02T11:11:25.161Z,934.95
2018-03-02T11:12:25.145Z,934.98
2018-03-02T11:13:25.122Z,934.97
2018-03-02T11:14:25.103Z,934.96
2018-03-02T11:15:25.084Z,934.94
2018-03-02T11:16:25.064Z,934.9
2018-03-02T11:17:25.044Z,934.92
2018-03-02T11:18:25.026Z,934.94
2018-03-02T11:19:25.007Z,934.91
2018-03-02T11:20:24.987Z,934.9
2018-03-02T11:21:24.968Z,934.86
2018-03-02T11:22:24.949Z,934.81
2018-03-02T11:23:24.934Z,934.85
2018-03-02T11:24:24.910Z,934.85
2018-03-02T11:25:24.891Z,934.84
2018-03-02T11:26:24.873Z,934.87
2018-03-02T11:27:24.858Z,934.89
2018-03-02T11:28:24.834Z,934.87
2018-03-02T11:29:24.815Z,934.86
2018-03-02T11:30:24.797Z,934.85
2018-03-02T11:31:24.777Z,934.82
2018-03-02T11:32:24.758Z,934.76
2018-03-02T11:33:24.739Z,934.75
2018-03-02T11:34:24.720Z,934.76
2018-03-02T11:35:24.701Z,934.71
2018-03-02T11:36:24.689Z,934.68
2018-03-02T11:37:24.663Z,934.7
2018-03-02T11:38:24.644Z,934.67
2018-03-02T11:39:24.625Z,934.69
2018-03-02T11:40:24.605Z,934.68
2018-03-02T11:41:24.586Z,934.66
2018-03-02T11:42:24.565Z,934.64
2018-03-02T11:43:24.546Z,934.68
2018-03-02T11:44:24.528Z,934.63
2018-03-02T11:45:24.509Z,934.6
2018-03-02T11:46:24.489Z,934.59
2018-03-02T11:47:24.470Z,934.59
2018-03-02T11:48:24.450Z,934.61
2018-03-02T11:49:24.431Z,934.55
2018-03-02T11:50:24.413Z,934.56
2018-03-02T11:51:24.392Z,934.53
2018-03-02T11:52:24.373Z,934.57
2018-03-02T11:53:24.353Z,934.54
2018-03-02T11:54:24.335Z,934.48
2018-03-02T11:55:24.315Z,934.52
2018-03-02T11:56:24.296Z,934.54
2018-03-02T11:57:24.275Z,934.51
2018-03-02T11:58:24.256Z,934.53
2018-03-02T11:59:24.237Z,934.51
2018-03-02T12:00:24.217Z,934.54
2018-03-02T12:01:24.198Z,934.49
2018-03-02T12:02:24.182Z,934.49
2018-03-02T12:03:24.160Z,934.51
2018-03-02T12:04:24.139Z,934.54
2018-03-02T12:05:24.120Z,934.47
2018-03-02T12:06:24.101Z,934.47
2018-03-02T12:07:24.081Z,934.49
2018-03-02T12:08:24.061Z,934.46
2018-03-02T12:09:24.042Z,934.45
2018-03-02T12:10:24.023Z,934.42
2018-03-02T12:11:24.002Z,934.42
2018-03-02T12:12:23.983Z,934.44
2018-03-02T12:13:23.963Z,934.34
2018-03-02T12:14:23.944Z,934.35
2018-03-02T12:15:23.923Z,934.41
2018-03-02T12:16:23.904Z,934.4
2018-03-02T12:17:23.885Z,934.35
2018-03-02T12:18:23.864Z,934.31
2018-03-02T12:19:23.848Z,934.32
2018-03-02T12:20:23.825Z,934.26
2018-03-02T12:21:23.809Z,934.25
2018-03-02T12:22:23.787Z,934.28
2018-03-02T12:23:23.766Z,934.26
2018-03-02T12:24:23.747Z,934.27
2018-03-02T12:25:23.727Z,934.26
2018-03-02T12:26:23.707Z,934.34
2018-03-02T12:27:23.688Z,934.28
2018-03-02T12:28:23.715Z,934.35
2018-03-02T12:29:23.649Z,934.27
2018-03-02T12:30:23.628Z,934.29
2018-03-02T12:31:23.609Z,934.25